Pagrindinis puslapis
METAR-TAF:

METAR-TAF

Oro uostai :

Apartado, Kolumbija

platuma: 07-49N, ilguma: 076-42W, Aukštis: 20 m

Dabartinis oras

Ataskaita buvo paskelbta 49 minutes, ne 00:00 UTC
Vėjas 12 kt iš Pietryčių
Temperatūra 24°C
Drėgmė 94%
Slėgis 1011 hPa
Matomumas: 8000 m
Su prošvaistėmis ne aukštis 1500 ft, aukštai iškilę kamuoliniai debesys.
dulksna

METAR: SKLC 230000Z 14012KT 8000 -DZ BKN015TCU 24/23 A2985

Laikas: 19:49 (00:49 UTC)


TAF: trūkstamas

Orai ataskaitas ir orų prognozės (METAR, TAF).

turimą stotys yra geltonos ir raudonos taškus žemėlapyje.

Perkelti pele per norėdami pamatyti stoties vardą.

Tada spustelėkite, norėdami matyti oro stebėjimo ir prognozės.

Norėdami pakeisti žemėlapį: spustelėkite ant žalios mygtukų su juodo kryžiaus žemyn,; žalią mygtuką su brūkšneliu, jei norite nutolinti; arba žalių rodyklių gretimoms žemėlapius.


METAR-TAF: